sensor_id;sensor_type;location;lat;lon;timestamp;temperature;humidity
5705;DHT22;2877;48.238;11.160;2023-12-07T00:02:05;-0.10;99.90
5705;DHT22;2877;48.238;11.160;2023-12-07T00:04:30;-0.20;99.90
5705;DHT22;2877;48.238;11.160;2023-12-07T00:06:56;-0.30;99.90
5705;DHT22;2877;48.238;11.160;2023-12-07T00:09:21;-0.30;99.90
5705;DHT22;2877;48.238;11.160;2023-12-07T00:11:47;-0.30;99.90
5705;DHT22;2877;48.238;11.160;2023-12-07T00:14:12;-0.30;99.90
5705;DHT22;2877;48.238;11.160;2023-12-07T00:16:38;-0.30;99.90
5705;DHT22;2877;48.238;11.160;2023-12-07T00:19:03;-0.30;99.90
5705;DHT22;2877;48.238;11.160;2023-12-07T00:21:29;-0.30;99.90
5705;DHT22;2877;48.238;11.160;2023-12-07T00:23:54;-0.40;99.90
5705;DHT22;2877;48.238;11.160;2023-12-07T00:26:20;-0.40;99.90
5705;DHT22;2877;48.238;11.160;2023-12-07T00:28:46;-0.50;99.90
5705;DHT22;2877;48.238;11.160;2023-12-07T00:31:11;-0.40;99.90
5705;DHT22;2877;48.238;11.160;2023-12-07T00:33:37;-0.40;99.90
5705;DHT22;2877;48.238;11.160;2023-12-07T00:36:03;-0.40;99.90
5705;DHT22;2877;48.238;11.160;2023-12-07T00:38:29;-0.50;99.90
5705;DHT22;2877;48.238;11.160;2023-12-07T00:40:57;-0.50;99.90
5705;DHT22;2877;48.238;11.160;2023-12-07T00:43:26;-0.50;99.90
5705;DHT22;2877;48.238;11.160;2023-12-07T00:45:54;-0.60;99.90
5705;DHT22;2877;48.238;11.160;2023-12-07T00:48:20;-0.60;99.90
5705;DHT22;2877;48.238;11.160;2023-12-07T00:50:45;-0.60;99.90
5705;DHT22;2877;48.238;11.160;2023-12-07T00:53:12;-0.70;99.90
5705;DHT22;2877;48.238;11.160;2023-12-07T00:55:40;-0.90;99.90
5705;DHT22;2877;48.238;11.160;2023-12-07T00:58:06;-0.90;99.90
5705;DHT22;2877;48.238;11.160;2023-12-07T01:00:37;-0.90;99.90
5705;DHT22;2877;48.238;11.160;2023-12-07T01:03:03;-0.80;99.90
5705;DHT22;2877;48.238;11.160;2023-12-07T01:05:28;-0.90;99.90
5705;DHT22;2877;48.238;11.160;2023-12-07T01:07:54;-1.10;99.90
5705;DHT22;2877;48.238;11.160;2023-12-07T01:10:19;-1.20;99.90
5705;DHT22;2877;48.238;11.160;2023-12-07T01:12:45;-1.20;99.90
5705;DHT22;2877;48.238;11.160;2023-12-07T01:15:10;-1.20;99.90
5705;DHT22;2877;48.238;11.160;2023-12-07T01:17:36;-1.10;99.90
5705;DHT22;2877;48.238;11.160;2023-12-07T01:20:03;-1.00;99.90
5705;DHT22;2877;48.238;11.160;2023-12-07T01:22:29;-1.00;99.90
5705;DHT22;2877;48.238;11.160;2023-12-07T01:24:54;-1.00;99.90
5705;DHT22;2877;48.238;11.160;2023-12-07T01:27:20;-0.90;99.90
5705;DHT22;2877;48.238;11.160;2023-12-07T01:29:45;-0.90;99.90
5705;DHT22;2877;48.238;11.160;2023-12-07T01:32:11;-0.90;99.90
5705;DHT22;2877;48.238;11.160;2023-12-07T01:34:36;-0.90;99.90
5705;DHT22;2877;48.238;11.160;2023-12-07T01:37:02;-0.90;99.90
5705;DHT22;2877;48.238;11.160;2023-12-07T01:39:28;-0.90;99.90
5705;DHT22;2877;48.238;11.160;2023-12-07T01:41:53;-1.00;99.90
5705;DHT22;2877;48.238;11.160;2023-12-07T01:44:19;-1.30;99.90
5705;DHT22;2877;48.238;11.160;2023-12-07T01:46:45;-1.50;99.90
5705;DHT22;2877;48.238;11.160;2023-12-07T01:49:11;-1.70;99.90
5705;DHT22;2877;48.238;11.160;2023-12-07T01:51:36;-1.70;99.90
5705;DHT22;2877;48.238;11.160;2023-12-07T01:54:02;-1.60;99.90
5705;DHT22;2877;48.238;11.160;2023-12-07T01:56:29;-1.30;99.90
5705;DHT22;2877;48.238;11.160;2023-12-07T01:58:54;-1.20;99.90
5705;DHT22;2877;48.238;11.160;2023-12-07T02:01:21;-1.00;99.90
5705;DHT22;2877;48.238;11.160;2023-12-07T02:03:47;-1.00;99.90
5705;DHT22;2877;48.238;11.160;2023-12-07T02:06:12;-0.90;99.90
5705;DHT22;2877;48.238;11.160;2023-12-07T02:08:39;-0.80;99.90
5705;DHT22;2877;48.238;11.160;2023-12-07T02:11:10;-0.80;99.90
5705;DHT22;2877;48.238;11.160;2023-12-07T02:13:39;-0.70;99.90
5705;DHT22;2877;48.238;11.160;2023-12-07T02:16:17;-0.70;99.90
5705;DHT22;2877;48.238;11.160;2023-12-07T02:18:51;-0.80;99.90
5705;DHT22;2877;48.238;11.160;2023-12-07T02:21:34;-1.00;99.90
5705;DHT22;2877;48.238;11.160;2023-12-07T02:24:02;-1.10;99.90
5705;DHT22;2877;48.238;11.160;2023-12-07T02:26:35;-1.00;99.90
5705;DHT22;2877;48.238;11.160;2023-12-07T02:29:01;-1.10;99.90
5705;DHT22;2877;48.238;11.160;2023-12-07T02:31:27;-1.10;99.90
5705;DHT22;2877;48.238;11.160;2023-12-07T02:33:53;-1.10;99.90
5705;DHT22;2877;48.238;11.160;2023-12-07T02:36:21;-1.10;99.90
5705;DHT22;2877;48.238;11.160;2023-12-07T02:38:49;-1.10;99.90
5705;DHT22;2877;48.238;11.160;2023-12-07T02:41:16;-1.10;99.90
5705;DHT22;2877;48.238;11.160;2023-12-07T02:43:42;-1.10;99.90
5705;DHT22;2877;48.238;11.160;2023-12-07T02:46:08;-1.10;99.90
5705;DHT22;2877;48.238;11.160;2023-12-07T02:48:33;-1.10;99.90
5705;DHT22;2877;48.238;11.160;2023-12-07T02:50:59;-1.00;99.90
5705;DHT22;2877;48.238;11.160;2023-12-07T02:53:24;-1.10;99.90
5705;DHT22;2877;48.238;11.160;2023-12-07T02:55:50;-1.00;99.90
5705;DHT22;2877;48.238;11.160;2023-12-07T02:58:15;-1.10;99.90
5705;DHT22;2877;48.238;11.160;2023-12-07T03:00:41;-1.20;99.90
5705;DHT22;2877;48.238;11.160;2023-12-07T03:03:06;-1.30;99.90
5705;DHT22;2877;48.238;11.160;2023-12-07T03:05:32;-1.30;99.90
5705;DHT22;2877;48.238;11.160;2023-12-07T03:07:57;-1.30;99.90
5705;DHT22;2877;48.238;11.160;2023-12-07T03:10:23;-1.40;99.90
5705;DHT22;2877;48.238;11.160;2023-12-07T03:12:48;-1.40;99.90
5705;DHT22;2877;48.238;11.160;2023-12-07T03:15:14;-1.30;99.90
5705;DHT22;2877;48.238;11.160;2023-12-07T03:17:39;-1.30;99.90
5705;DHT22;2877;48.238;11.160;2023-12-07T03:20:05;-1.30;99.90
5705;DHT22;2877;48.238;11.160;2023-12-07T03:22:31;-1.20;99.90
5705;DHT22;2877;48.238;11.160;2023-12-07T03:24:57;-1.20;99.90
5705;DHT22;2877;48.238;11.160;2023-12-07T03:27:22;-1.10;99.90
5705;DHT22;2877;48.238;11.160;2023-12-07T03:29:48;-1.10;99.90
5705;DHT22;2877;48.238;11.160;2023-12-07T03:32:13;-1.10;99.90
5705;DHT22;2877;48.238;11.160;2023-12-07T03:34:39;-1.20;99.90
5705;DHT22;2877;48.238;11.160;2023-12-07T03:37:04;-1.20;99.90
5705;DHT22;2877;48.238;11.160;2023-12-07T03:39:30;-1.20;99.90
5705;DHT22;2877;48.238;11.160;2023-12-07T03:41:57;-1.10;99.90
5705;DHT22;2877;48.238;11.160;2023-12-07T03:44:23;-1.10;99.90
5705;DHT22;2877;48.238;11.160;2023-12-07T03:46:49;-1.20;99.90
5705;DHT22;2877;48.238;11.160;2023-12-07T03:49:14;-1.30;99.90
5705;DHT22;2877;48.238;11.160;2023-12-07T03:51:40;-1.30;99.90
5705;DHT22;2877;48.238;11.160;2023-12-07T03:54:06;-1.40;99.90
5705;DHT22;2877;48.238;11.160;2023-12-07T03:56:32;-1.50;99.90
5705;DHT22;2877;48.238;11.160;2023-12-07T03:58:58;-1.50;99.90
5705;DHT22;2877;48.238;11.160;2023-12-07T04:01:24;-1.50;99.90
5705;DHT22;2877;48.238;11.160;2023-12-07T04:03:50;-1.60;99.90
5705;DHT22;2877;48.238;11.160;2023-12-07T04:06:16;-1.60;99.90
5705;DHT22;2877;48.238;11.160;2023-12-07T04:08:42;-1.70;99.90
5705;DHT22;2877;48.238;11.160;2023-12-07T04:11:07;-1.80;99.90
5705;DHT22;2877;48.238;11.160;2023-12-07T04:13:33;-1.90;99.90
5705;DHT22;2877;48.238;11.160;2023-12-07T04:15:59;-2.00;99.90
5705;DHT22;2877;48.238;11.160;2023-12-07T04:18:24;-2.00;99.90
5705;DHT22;2877;48.238;11.160;2023-12-07T04:20:50;-2.10;99.90
5705;DHT22;2877;48.238;11.160;2023-12-07T04:23:15;-2.20;99.90
5705;DHT22;2877;48.238;11.160;2023-12-07T04:25:41;-2.30;99.90
5705;DHT22;2877;48.238;11.160;2023-12-07T04:28:06;-2.30;99.90
5705;DHT22;2877;48.238;11.160;2023-12-07T04:30:32;-2.40;99.90
5705;DHT22;2877;48.238;11.160;2023-12-07T04:32:58;-2.40;99.90
5705;DHT22;2877;48.238;11.160;2023-12-07T04:35:23;-2.50;99.90
5705;DHT22;2877;48.238;11.160;2023-12-07T04:37:49;-2.60;99.90
5705;DHT22;2877;48.238;11.160;2023-12-07T04:40:14;-2.60;99.90
5705;DHT22;2877;48.238;11.160;2023-12-07T04:42:40;-2.70;99.90
5705;DHT22;2877;48.238;11.160;2023-12-07T04:45:06;-2.80;99.90
5705;DHT22;2877;48.238;11.160;2023-12-07T04:47:32;-2.90;99.90
5705;DHT22;2877;48.238;11.160;2023-12-07T04:49:58;-2.90;99.90
5705;DHT22;2877;48.238;11.160;2023-12-07T04:52:24;-2.90;99.90
5705;DHT22;2877;48.238;11.160;2023-12-07T04:54:49;-2.80;99.90
5705;DHT22;2877;48.238;11.160;2023-12-07T04:57:15;-2.70;99.90
5705;DHT22;2877;48.238;11.160;2023-12-07T04:59:40;-2.70;99.90
5705;DHT22;2877;48.238;11.160;2023-12-07T05:02:06;-2.70;99.90
5705;DHT22;2877;48.238;11.160;2023-12-07T05:04:31;-2.60;99.90
5705;DHT22;2877;48.238;11.160;2023-12-07T05:06:58;-2.60;99.90
5705;DHT22;2877;48.238;11.160;2023-12-07T05:09:25;-2.60;99.90
5705;DHT22;2877;48.238;11.160;2023-12-07T05:11:51;-2.50;99.90
5705;DHT22;2877;48.238;11.160;2023-12-07T05:14:16;-2.50;99.90
5705;DHT22;2877;48.238;11.160;2023-12-07T05:16:42;-2.60;99.90
5705;DHT22;2877;48.238;11.160;2023-12-07T05:19:07;-2.60;99.90
5705;DHT22;2877;48.238;11.160;2023-12-07T05:21:33;-2.60;99.90
5705;DHT22;2877;48.238;11.160;2023-12-07T05:23:58;-2.60;99.90
5705;DHT22;2877;48.238;11.160;2023-12-07T05:26:24;-2.70;99.90
5705;DHT22;2877;48.238;11.160;2023-12-07T05:28:49;-2.80;99.90
5705;DHT22;2877;48.238;11.160;2023-12-07T05:31:18;-2.90;99.90
5705;DHT22;2877;48.238;11.160;2023-12-07T05:33:44;-2.90;99.90
5705;DHT22;2877;48.238;11.160;2023-12-07T05:36:09;-2.90;99.90
5705;DHT22;2877;48.238;11.160;2023-12-07T05:38:35;-3.00;99.90
5705;DHT22;2877;48.238;11.160;2023-12-07T05:41:00;-3.10;99.90
5705;DHT22;2877;48.238;11.160;2023-12-07T05:43:26;-3.20;99.90
5705;DHT22;2877;48.238;11.160;2023-12-07T05:45:51;-3.20;99.90
5705;DHT22;2877;48.238;11.160;2023-12-07T05:48:20;-3.20;99.90
5705;DHT22;2877;48.238;11.160;2023-12-07T05:50:45;-3.30;99.90
5705;DHT22;2877;48.238;11.160;2023-12-07T05:53:11;-3.30;99.90
5705;DHT22;2877;48.238;11.160;2023-12-07T05:55:37;-3.40;99.90
5705;DHT22;2877;48.238;11.160;2023-12-07T05:58:02;-3.30;99.90
5705;DHT22;2877;48.238;11.160;2023-12-07T06:00:29;-3.30;99.90
5705;DHT22;2877;48.238;11.160;2023-12-07T06:02:54;-3.30;99.90
5705;DHT22;2877;48.238;11.160;2023-12-07T06:05:20;-3.20;99.90
5705;DHT22;2877;48.238;11.160;2023-12-07T06:07:46;-3.20;99.90
5705;DHT22;2877;48.238;11.160;2023-12-07T06:10:11;-3.20;99.90
5705;DHT22;2877;48.238;11.160;2023-12-07T06:12:37;-3.10;99.90
5705;DHT22;2877;48.238;11.160;2023-12-07T06:15:04;-3.10;99.90
5705;DHT22;2877;48.238;11.160;2023-12-07T06:17:32;-3.00;99.90
5705;DHT22;2877;48.238;11.160;2023-12-07T06:19:59;-3.00;99.90
5705;DHT22;2877;48.238;11.160;2023-12-07T06:22:24;-3.10;99.90
5705;DHT22;2877;48.238;11.160;2023-12-07T06:24:50;-3.10;99.90
5705;DHT22;2877;48.238;11.160;2023-12-07T06:27:15;-3.10;99.90
5705;DHT22;2877;48.238;11.160;2023-12-07T06:29:41;-3.20;99.90
5705;DHT22;2877;48.238;11.160;2023-12-07T06:32:06;-3.30;99.90
5705;DHT22;2877;48.238;11.160;2023-12-07T06:34:32;-3.40;99.90
5705;DHT22;2877;48.238;11.160;2023-12-07T06:36:57;-3.40;99.90
5705;DHT22;2877;48.238;11.160;2023-12-07T06:39:23;-3.50;99.90
5705;DHT22;2877;48.238;11.160;2023-12-07T06:41:48;-3.60;99.90
5705;DHT22;2877;48.238;11.160;2023-12-07T06:44:14;-3.60;99.90
5705;DHT22;2877;48.238;11.160;2023-12-07T06:46:43;-3.70;99.90
5705;DHT22;2877;48.238;11.160;2023-12-07T06:49:08;-3.50;99.90
5705;DHT22;2877;48.238;11.160;2023-12-07T06:51:34;-3.40;99.90
5705;DHT22;2877;48.238;11.160;2023-12-07T06:54:00;-3.30;99.90
5705;DHT22;2877;48.238;11.160;2023-12-07T06:56:25;-3.30;99.90
5705;DHT22;2877;48.238;11.160;2023-12-07T06:58:51;-3.30;99.90
5705;DHT22;2877;48.238;11.160;2023-12-07T07:01:16;-3.30;99.90
5705;DHT22;2877;48.238;11.160;2023-12-07T07:03:42;-3.20;99.90
5705;DHT22;2877;48.238;11.160;2023-12-07T07:06:10;-3.20;99.90
5705;DHT22;2877;48.238;11.160;2023-12-07T07:08:36;-3.30;99.90
5705;DHT22;2877;48.238;11.160;2023-12-07T07:11:01;-3.40;99.90
5705;DHT22;2877;48.238;11.160;2023-12-07T07:13:27;-3.60;99.90
5705;DHT22;2877;48.238;11.160;2023-12-07T07:15:52;-3.70;99.90
5705;DHT22;2877;48.238;11.160;2023-12-07T07:18:18;-3.80;99.90
5705;DHT22;2877;48.238;11.160;2023-12-07T07:20:44;-3.90;99.90
5705;DHT22;2877;48.238;11.160;2023-12-07T07:23:10;-3.90;99.90
5705;DHT22;2877;48.238;11.160;2023-12-07T07:25:35;-3.80;99.90
5705;DHT22;2877;48.238;11.160;2023-12-07T07:28:01;-3.60;99.90
5705;DHT22;2877;48.238;11.160;2023-12-07T07:30:27;-3.40;99.90
5705;DHT22;2877;48.238;11.160;2023-12-07T07:32:53;-3.30;99.90
5705;DHT22;2877;48.238;11.160;2023-12-07T07:35:18;-3.30;99.90
5705;DHT22;2877;48.238;11.160;2023-12-07T07:37:44;-3.30;99.90
5705;DHT22;2877;48.238;11.160;2023-12-07T07:40:10;-3.30;99.90
5705;DHT22;2877;48.238;11.160;2023-12-07T07:42:38;-3.40;99.90
5705;DHT22;2877;48.238;11.160;2023-12-07T07:45:06;-3.40;99.90
5705;DHT22;2877;48.238;11.160;2023-12-07T07:47:32;-3.50;99.90
5705;DHT22;2877;48.238;11.160;2023-12-07T07:49:58;-3.40;99.90
5705;DHT22;2877;48.238;11.160;2023-12-07T07:52:24;-3.30;99.90
5705;DHT22;2877;48.238;11.160;2023-12-07T07:54:50;-3.30;99.90
5705;DHT22;2877;48.238;11.160;2023-12-07T07:57:15;-3.30;99.90
5705;DHT22;2877;48.238;11.160;2023-12-07T07:59:41;-3.20;99.90
5705;DHT22;2877;48.238;11.160;2023-12-07T08:02:06;-3.20;99.90
5705;DHT22;2877;48.238;11.160;2023-12-07T08:04:32;-3.30;99.90
5705;DHT22;2877;48.238;11.160;2023-12-07T08:06:58;-3.30;99.90
5705;DHT22;2877;48.238;11.160;2023-12-07T08:09:23;-3.20;99.90
5705;DHT22;2877;48.238;11.160;2023-12-07T08:11:49;-3.20;99.90
5705;DHT22;2877;48.238;11.160;2023-12-07T08:14:14;-3.20;99.90
5705;DHT22;2877;48.238;11.160;2023-12-07T08:16:44;-3.20;99.90
5705;DHT22;2877;48.238;11.160;2023-12-07T08:19:09;-3.10;99.90
5705;DHT22;2877;48.238;11.160;2023-12-07T08:21:35;-3.00;99.90
5705;DHT22;2877;48.238;11.160;2023-12-07T08:24:00;-3.00;99.90
5705;DHT22;2877;48.238;11.160;2023-12-07T08:26:26;-3.00;99.90
5705;DHT22;2877;48.238;11.160;2023-12-07T08:28:53;-2.90;99.90
5705;DHT22;2877;48.238;11.160;2023-12-07T08:31:19;-2.90;99.90
5705;DHT22;2877;48.238;11.160;2023-12-07T08:33:45;-2.80;99.90
5705;DHT22;2877;48.238;11.160;2023-12-07T08:36:11;-2.70;99.90
5705;DHT22;2877;48.238;11.160;2023-12-07T08:38:36;-2.70;99.90
5705;DHT22;2877;48.238;11.160;2023-12-07T08:41:02;-2.70;99.90
5705;DHT22;2877;48.238;11.160;2023-12-07T08:43:28;-2.50;99.90
5705;DHT22;2877;48.238;11.160;2023-12-07T08:45:55;-2.50;99.90
5705;DHT22;2877;48.238;11.160;2023-12-07T08:48:21;-2.40;99.90
5705;DHT22;2877;48.238;11.160;2023-12-07T08:50:46;-2.40;99.90
5705;DHT22;2877;48.238;11.160;2023-12-07T08:53:12;-2.40;99.90
5705;DHT22;2877;48.238;11.160;2023-12-07T08:55:37;-2.20;99.90
5705;DHT22;2877;48.238;11.160;2023-12-07T08:58:03;-2.20;99.90
5705;DHT22;2877;48.238;11.160;2023-12-07T09:00:32;-2.10;99.90
5705;DHT22;2877;48.238;11.160;2023-12-07T09:02:58;-2.00;99.90
5705;DHT22;2877;48.238;11.160;2023-12-07T09:05:25;-1.90;99.90
5705;DHT22;2877;48.238;11.160;2023-12-07T09:07:51;-1.90;99.90
5705;DHT22;2877;48.238;11.160;2023-12-07T09:10:18;-1.90;99.90
5705;DHT22;2877;48.238;11.160;2023-12-07T09:12:44;-1.80;99.90
5705;DHT22;2877;48.238;11.160;2023-12-07T09:15:10;-1.70;99.90
5705;DHT22;2877;48.238;11.160;2023-12-07T09:17:36;-1.70;99.90
5705;DHT22;2877;48.238;11.160;2023-12-07T09:20:07;-1.70;99.90
5705;DHT22;2877;48.238;11.160;2023-12-07T09:22:42;-1.60;99.90
5705;DHT22;2877;48.238;11.160;2023-12-07T09:25:08;-1.50;99.90
5705;DHT22;2877;48.238;11.160;2023-12-07T09:27:34;-1.40;99.90
5705;DHT22;2877;48.238;11.160;2023-12-07T09:30:04;-1.20;99.90
5705;DHT22;2877;48.238;11.160;2023-12-07T09:32:29;-1.00;99.90
5705;DHT22;2877;48.238;11.160;2023-12-07T09:34:55;-1.00;99.90
5705;DHT22;2877;48.238;11.160;2023-12-07T09:37:20;-0.90;99.90
5705;DHT22;2877;48.238;11.160;2023-12-07T09:39:46;-0.80;99.90
5705;DHT22;2877;48.238;11.160;2023-12-07T09:42:11;-0.70;99.90
5705;DHT22;2877;48.238;11.160;2023-12-07T09:44:37;-0.70;99.90
5705;DHT22;2877;48.238;11.160;2023-12-07T09:47:03;-0.50;99.90
5705;DHT22;2877;48.238;11.160;2023-12-07T09:49:29;-0.30;99.90
5705;DHT22;2877;48.238;11.160;2023-12-07T09:51:56;-0.20;99.90
5705;DHT22;2877;48.238;11.160;2023-12-07T09:54:23;-0.10;99.90
5705;DHT22;2877;48.238;11.160;2023-12-07T09:56:50;0.00;99.90
5705;DHT22;2877;48.238;11.160;2023-12-07T09:59:18;0.10;99.90
5705;DHT22;2877;48.238;11.160;2023-12-07T10:01:44;0.20;99.90
5705;DHT22;2877;48.238;11.160;2023-12-07T10:04:23;0.30;99.90
5705;DHT22;2877;48.238;11.160;2023-12-07T10:06:52;0.40;99.90
5705;DHT22;2877;48.238;11.160;2023-12-07T10:09:18;0.50;99.90
5705;DHT22;2877;48.238;11.160;2023-12-07T10:11:47;0.60;99.90
5705;DHT22;2877;48.238;11.160;2023-12-07T10:14:13;0.70;99.90
5705;DHT22;2877;48.238;11.160;2023-12-07T10:16:52;0.70;99.90
5705;DHT22;2877;48.238;11.160;2023-12-07T10:19:20;0.90;99.90
5705;DHT22;2877;48.238;11.160;2023-12-07T10:21:50;1.00;99.90
5705;DHT22;2877;48.238;11.160;2023-12-07T10:24:17;1.00;99.90
5705;DHT22;2877;48.238;11.160;2023-12-07T10:26:44;1.10;99.90
5705;DHT22;2877;48.238;11.160;2023-12-07T10:29:10;1.10;99.90
5705;DHT22;2877;48.238;11.160;2023-12-07T10:31:36;1.20;99.90
5705;DHT22;2877;48.238;11.160;2023-12-07T10:34:02;1.20;99.90
5705;DHT22;2877;48.238;11.160;2023-12-07T10:36:28;1.30;99.90
5705;DHT22;2877;48.238;11.160;2023-12-07T10:38:54;1.40;99.90
5705;DHT22;2877;48.238;11.160;2023-12-07T10:41:20;1.50;99.90
5705;DHT22;2877;48.238;11.160;2023-12-07T10:43:50;1.50;99.90
5705;DHT22;2877;48.238;11.160;2023-12-07T10:46:22;1.60;99.90
5705;DHT22;2877;48.238;11.160;2023-12-07T10:48:50;1.60;99.90
5705;DHT22;2877;48.238;11.160;2023-12-07T10:51:38;1.60;99.90
5705;DHT22;2877;48.238;11.160;2023-12-07T10:54:06;1.60;99.90
5705;DHT22;2877;48.238;11.160;2023-12-07T10:56:43;1.70;99.90
5705;DHT22;2877;48.238;11.160;2023-12-07T10:59:10;1.70;99.90
5705;DHT22;2877;48.238;11.160;2023-12-07T11:01:40;1.70;99.90
5705;DHT22;2877;48.238;11.160;2023-12-07T11:04:06;1.70;99.90
5705;DHT22;2877;48.238;11.160;2023-12-07T11:06:33;1.80;99.90
5705;DHT22;2877;48.238;11.160;2023-12-07T11:09:01;1.80;99.90
5705;DHT22;2877;48.238;11.160;2023-12-07T11:11:42;1.90;99.90
5705;DHT22;2877;48.238;11.160;2023-12-07T11:14:10;1.90;99.90
5705;DHT22;2877;48.238;11.160;2023-12-07T11:16:42;1.90;99.90
5705;DHT22;2877;48.238;11.160;2023-12-07T11:21:58;2.00;99.90
5705;DHT22;2877;48.238;11.160;2023-12-07T11:24:24;1.90;99.90
5705;DHT22;2877;48.238;11.160;2023-12-07T11:26:52;1.90;99.90
5705;DHT22;2877;48.238;11.160;2023-12-07T11:29:21;1.90;99.90
5705;DHT22;2877;48.238;11.160;2023-12-07T11:31:48;1.90;99.90
5705;DHT22;2877;48.238;11.160;2023-12-07T11:34:26;1.80;99.90
5705;DHT22;2877;48.238;11.160;2023-12-07T11:36:58;1.80;99.90
5705;DHT22;2877;48.238;11.160;2023-12-07T11:39:24;1.90;99.90
5705;DHT22;2877;48.238;11.160;2023-12-07T11:41:54;1.90;99.90
5705;DHT22;2877;48.238;11.160;2023-12-07T11:44:20;1.90;99.90
5705;DHT22;2877;48.238;11.160;2023-12-07T11:46:49;2.00;99.90
5705;DHT22;2877;48.238;11.160;2023-12-07T11:49:14;2.10;99.90
5705;DHT22;2877;48.238;11.160;2023-12-07T11:51:41;2.10;99.90
5705;DHT22;2877;48.238;11.160;2023-12-07T11:54:07;2.00;99.90
5705;DHT22;2877;48.238;11.160;2023-12-07T11:56:36;2.00;99.90
5705;DHT22;2877;48.238;11.160;2023-12-07T11:59:02;2.00;99.90
5705;DHT22;2877;48.238;11.160;2023-12-07T12:01:28;2.00;99.90
5705;DHT22;2877;48.238;11.160;2023-12-07T12:03:55;1.90;99.90
5705;DHT22;2877;48.238;11.160;2023-12-07T12:06:24;2.10;99.90
5705;DHT22;2877;48.238;11.160;2023-12-07T12:08:49;2.10;99.90
5705;DHT22;2877;48.238;11.160;2023-12-07T12:11:15;2.10;99.90
5705;DHT22;2877;48.238;11.160;2023-12-07T12:13:41;2.10;99.90
5705;DHT22;2877;48.238;11.160;2023-12-07T12:16:07;2.10;99.90
5705;DHT22;2877;48.238;11.160;2023-12-07T12:18:33;2.00;99.90
5705;DHT22;2877;48.238;11.160;2023-12-07T12:20:59;2.00;99.90
5705;DHT22;2877;48.238;11.160;2023-12-07T12:23:24;2.00;99.90
5705;DHT22;2877;48.238;11.160;2023-12-07T12:25:51;2.00;99.90
5705;DHT22;2877;48.238;11.160;2023-12-07T12:28:17;2.00;99.90
5705;DHT22;2877;48.238;11.160;2023-12-07T12:30:44;2.00;99.90
5705;DHT22;2877;48.238;11.160;2023-12-07T12:33:10;2.00;99.90
5705;DHT22;2877;48.238;11.160;2023-12-07T12:35:36;1.90;99.90
5705;DHT22;2877;48.238;11.160;2023-12-07T12:38:01;1.90;99.90
5705;DHT22;2877;48.238;11.160;2023-12-07T12:40:27;1.90;99.90
5705;DHT22;2877;48.238;11.160;2023-12-07T12:42:57;1.90;99.90
5705;DHT22;2877;48.238;11.160;2023-12-07T12:45:23;1.90;99.90
5705;DHT22;2877;48.238;11.160;2023-12-07T12:47:49;1.80;99.90
5705;DHT22;2877;48.238;11.160;2023-12-07T12:53:00;1.80;99.90
5705;DHT22;2877;48.238;11.160;2023-12-07T12:55:26;1.80;99.90
5705;DHT22;2877;48.238;11.160;2023-12-07T12:57:52;1.70;99.90
5705;DHT22;2877;48.238;11.160;2023-12-07T13:00:18;1.70;99.90
5705;DHT22;2877;48.238;11.160;2023-12-07T13:02:44;1.70;99.90
5705;DHT22;2877;48.238;11.160;2023-12-07T13:05:10;1.70;99.90
5705;DHT22;2877;48.238;11.160;2023-12-07T13:07:35;1.70;99.90
5705;DHT22;2877;48.238;11.160;2023-12-07T13:10:04;1.70;99.90
5705;DHT22;2877;48.238;11.160;2023-12-07T13:12:30;1.70;99.90
5705;DHT22;2877;48.238;11.160;2023-12-07T13:14:59;1.70;99.90
5705;DHT22;2877;48.238;11.160;2023-12-07T13:17:25;1.70;99.90
5705;DHT22;2877;48.238;11.160;2023-12-07T13:19:51;1.60;99.90
5705;DHT22;2877;48.238;11.160;2023-12-07T13:22:17;1.60;99.90
5705;DHT22;2877;48.238;11.160;2023-12-07T13:24:43;1.60;99.90
5705;DHT22;2877;48.238;11.160;2023-12-07T13:27:08;1.60;99.90
5705;DHT22;2877;48.238;11.160;2023-12-07T13:29:34;1.50;99.90
5705;DHT22;2877;48.238;11.160;2023-12-07T13:31:59;1.50;99.90
5705;DHT22;2877;48.238;11.160;2023-12-07T13:34:25;1.40;99.90
5705;DHT22;2877;48.238;11.160;2023-12-07T13:36:51;1.40;99.90
5705;DHT22;2877;48.238;11.160;2023-12-07T13:39:17;1.40;99.90
5705;DHT22;2877;48.238;11.160;2023-12-07T13:41:49;1.40;99.90
5705;DHT22;2877;48.238;11.160;2023-12-07T13:44:18;1.40;99.90
5705;DHT22;2877;48.238;11.160;2023-12-07T13:46:45;1.30;99.90
5705;DHT22;2877;48.238;11.160;2023-12-07T13:49:10;1.30;99.90
5705;DHT22;2877;48.238;11.160;2023-12-07T13:51:40;1.30;99.90
5705;DHT22;2877;48.238;11.160;2023-12-07T13:54:06;1.20;99.90
5705;DHT22;2877;48.238;11.160;2023-12-07T13:56:33;1.20;99.90
5705;DHT22;2877;48.238;11.160;2023-12-07T13:58:59;1.10;99.90
5705;DHT22;2877;48.238;11.160;2023-12-07T14:01:24;1.00;99.90
5705;DHT22;2877;48.238;11.160;2023-12-07T14:03:51;0.90;99.90
5705;DHT22;2877;48.238;11.160;2023-12-07T14:06:24;0.90;99.90
5705;DHT22;2877;48.238;11.160;2023-12-07T14:08:50;0.80;99.90
5705;DHT22;2877;48.238;11.160;2023-12-07T14:11:17;0.80;99.90
5705;DHT22;2877;48.238;11.160;2023-12-07T14:13:42;0.70;99.90
5705;DHT22;2877;48.238;11.160;2023-12-07T14:16:08;0.70;99.90
5705;DHT22;2877;48.238;11.160;2023-12-07T14:18:34;0.60;99.90
5705;DHT22;2877;48.238;11.160;2023-12-07T14:21:02;0.50;99.90
5705;DHT22;2877;48.238;11.160;2023-12-07T14:23:28;0.40;99.90
5705;DHT22;2877;48.238;11.160;2023-12-07T14:25:54;0.40;99.90
5705;DHT22;2877;48.238;11.160;2023-12-07T14:28:24;0.30;99.90
5705;DHT22;2877;48.238;11.160;2023-12-07T14:30:49;0.20;99.90
5705;DHT22;2877;48.238;11.160;2023-12-07T14:33:15;0.10;99.90
5705;DHT22;2877;48.238;11.160;2023-12-07T14:35:43;0.00;99.90
5705;DHT22;2877;48.238;11.160;2023-12-07T14:38:09;-0.10;99.90
5705;DHT22;2877;48.238;11.160;2023-12-07T14:40:37;-0.20;99.90
5705;DHT22;2877;48.238;11.160;2023-12-07T14:43:02;-0.30;99.90
5705;DHT22;2877;48.238;11.160;2023-12-07T14:45:29;-0.40;99.90
5705;DHT22;2877;48.238;11.160;2023-12-07T14:47:54;-0.40;99.90
5705;DHT22;2877;48.238;11.160;2023-12-07T14:50:20;-0.50;99.90
5705;DHT22;2877;48.238;11.160;2023-12-07T14:52:45;-0.60;99.90
5705;DHT22;2877;48.238;11.160;2023-12-07T14:55:11;-0.80;99.90
5705;DHT22;2877;48.238;11.160;2023-12-07T14:57:36;-0.90;99.90
5705;DHT22;2877;48.238;11.160;2023-12-07T15:00:02;-1.00;99.90
5705;DHT22;2877;48.238;11.160;2023-12-07T15:02:29;-1.00;99.90
5705;DHT22;2877;48.238;11.160;2023-12-07T15:04:55;-1.00;99.90
5705;DHT22;2877;48.238;11.160;2023-12-07T15:07:20;-0.90;99.90
5705;DHT22;2877;48.238;11.160;2023-12-07T15:09:46;-0.90;99.90
5705;DHT22;2877;48.238;11.160;2023-12-07T15:12:17;-0.80;99.90
5705;DHT22;2877;48.238;11.160;2023-12-07T15:14:44;-0.80;99.90
5705;DHT22;2877;48.238;11.160;2023-12-07T15:17:11;-0.80;99.90
5705;DHT22;2877;48.238;11.160;2023-12-07T15:19:37;-0.90;99.90
5705;DHT22;2877;48.238;11.160;2023-12-07T15:22:03;-1.00;99.90
5705;DHT22;2877;48.238;11.160;2023-12-07T15:24:29;-1.10;99.90
5705;DHT22;2877;48.238;11.160;2023-12-07T15:26:55;-1.30;99.90
5705;DHT22;2877;48.238;11.160;2023-12-07T15:29:20;-1.50;99.90
5705;DHT22;2877;48.238;11.160;2023-12-07T15:31:46;-1.60;99.90
5705;DHT22;2877;48.238;11.160;2023-12-07T15:34:11;-1.60;99.90
5705;DHT22;2877;48.238;11.160;2023-12-07T15:36:37;-1.70;99.90
5705;DHT22;2877;48.238;11.160;2023-12-07T15:39:03;-1.80;99.90
5705;DHT22;2877;48.238;11.160;2023-12-07T15:41:28;-1.90;99.90
5705;DHT22;2877;48.238;11.160;2023-12-07T15:43:54;-2.00;99.90
5705;DHT22;2877;48.238;11.160;2023-12-07T15:46:20;-2.10;99.90
5705;DHT22;2877;48.238;11.160;2023-12-07T15:48:46;-2.10;99.90
5705;DHT22;2877;48.238;11.160;2023-12-07T15:51:11;-2.20;99.90